createdAt,value
2019-05-15T00:00:09.228Z,1020.54
2019-05-15T00:01:09.218Z,1020.54
2019-05-15T00:02:10.929Z,1020.58
2019-05-15T00:03:09.196Z,1020.53
2019-05-15T00:04:09.443Z,1020.54
2019-05-15T00:05:09.277Z,1020.49
2019-05-15T00:06:09.160Z,1020.51
2019-05-15T00:07:09.172Z,1020.50
2019-05-15T00:08:09.810Z,1020.49
2019-05-15T00:09:09.149Z,1020.52
2019-05-15T00:10:09.174Z,1020.47
2019-05-15T00:11:09.112Z,1020.46
2019-05-15T00:12:09.118Z,1020.46
2019-05-15T00:13:09.512Z,1020.41
2019-05-15T00:14:09.073Z,1020.39
2019-05-15T00:15:09.579Z,1020.42
2019-05-15T00:16:09.050Z,1020.38
2019-05-15T00:17:09.063Z,1020.35
2019-05-15T00:18:09.051Z,1020.34
2019-05-15T00:19:09.022Z,1020.36
2019-05-15T00:20:10.034Z,1020.42
2019-05-15T00:21:09.488Z,1020.40
2019-05-15T00:22:09.007Z,1020.42
2019-05-15T00:23:08.978Z,1020.34
2019-05-15T00:24:13.093Z,1020.37
2019-05-15T00:25:09.496Z,1020.34
2019-05-15T00:26:09.390Z,1020.31
2019-05-15T00:27:08.955Z,1020.35
2019-05-15T00:28:09.715Z,1020.36
2019-05-15T00:29:15.134Z,1020.36
2019-05-15T00:30:08.900Z,1020.35
2019-05-15T00:31:09.232Z,1020.41
2019-05-15T00:32:09.235Z,1020.33
2019-05-15T00:33:09.411Z,1020.39
2019-05-15T00:34:12.793Z,1020.36
2019-05-15T00:35:09.500Z,1020.38
2019-05-15T00:36:08.940Z,1020.34
2019-05-15T00:37:09.106Z,1020.34
2019-05-15T00:38:09.489Z,1020.34
2019-05-15T00:39:08.803Z,1020.34
2019-05-15T00:40:09.136Z,1020.36
2019-05-15T00:41:09.564Z,1020.33
2019-05-15T00:42:08.801Z,1020.27
2019-05-15T00:43:09.042Z,1020.27
2019-05-15T00:44:09.327Z,1020.26
2019-05-15T00:45:09.419Z,1020.29
2019-05-15T00:46:09.316Z,1020.26
2019-05-15T00:47:10.447Z,1020.29
2019-05-15T00:48:09.075Z,1020.24
2019-05-15T00:49:08.849Z,1020.26
2019-05-15T00:50:08.998Z,1020.29
2019-05-15T00:51:08.669Z,1020.28
2019-05-15T00:52:12.102Z,1020.25
2019-05-15T00:53:08.901Z,1020.20
2019-05-15T00:54:08.649Z,1020.21
2019-05-15T00:55:08.953Z,1020.25
2019-05-15T00:56:09.013Z,1020.21
2019-05-15T00:57:08.688Z,1020.23
2019-05-15T00:58:08.916Z,1020.21
2019-05-15T00:59:08.587Z,1020.23
2019-05-15T01:00:08.571Z,1020.23
2019-05-15T01:01:08.568Z,1020.21
2019-05-15T01:02:08.805Z,1020.24
2019-05-15T01:03:08.917Z,1020.23
2019-05-15T01:04:08.530Z,1020.27
2019-05-15T01:05:08.591Z,1020.20
2019-05-15T01:06:08.632Z,1020.26
2019-05-15T01:07:08.524Z,1020.21
2019-05-15T01:08:08.515Z,1020.21
2019-05-15T01:09:08.546Z,1020.24
2019-05-15T01:10:09.832Z,1020.26
2019-05-15T01:11:09.041Z,1020.27
2019-05-15T01:12:09.029Z,1020.21
2019-05-15T01:13:08.778Z,1020.20
2019-05-15T01:14:12.147Z,1020.17
2019-05-15T01:15:09.228Z,1020.21
2019-05-15T01:16:09.149Z,1020.17
2019-05-15T01:17:09.077Z,1020.15
2019-05-15T01:18:09.386Z,1020.14
2019-05-15T01:19:09.214Z,1020.15
2019-05-15T01:20:08.700Z,1020.14
2019-05-15T01:21:08.601Z,1020.12
2019-05-15T01:22:08.834Z,1020.13
2019-05-15T01:23:09.068Z,1020.12
2019-05-15T01:24:08.517Z,1020.08
2019-05-15T01:25:08.819Z,1020.08
2019-05-15T01:26:08.526Z,1020.06
2019-05-15T01:27:09.099Z,1020.08
2019-05-15T01:28:09.484Z,1020.09
2019-05-15T01:29:09.118Z,1020.11
2019-05-15T01:30:09.037Z,1020.11
2019-05-15T01:31:08.736Z,1020.12
2019-05-15T01:32:08.535Z,1020.09
2019-05-15T01:33:08.486Z,1020.10
2019-05-15T01:34:09.025Z,1020.08
2019-05-15T01:35:09.458Z,1020.05
2019-05-15T01:36:08.619Z,1020.07
2019-05-15T01:37:08.650Z,1019.99
2019-05-15T01:38:08.458Z,1020.00
2019-05-15T01:39:08.152Z,1020.01
2019-05-15T01:40:08.847Z,1019.95
2019-05-15T01:41:09.711Z,1019.99
2019-05-15T01:42:08.409Z,1019.95
2019-05-15T01:43:09.036Z,1019.95
2019-05-15T01:44:08.792Z,1019.97
2019-05-15T01:45:08.689Z,1019.93
2019-05-15T01:46:08.542Z,1019.92
2019-05-15T01:47:08.562Z,1019.90
2019-05-15T01:48:08.306Z,1019.91
2019-05-15T01:49:08.121Z,1019.91
2019-05-15T01:50:09.341Z,1019.84
2019-05-15T01:51:09.291Z,1019.89
2019-05-15T01:52:08.143Z,1019.82
2019-05-15T01:53:08.445Z,1019.82
2019-05-15T01:54:09.171Z,1019.85
2019-05-15T01:55:09.112Z,1019.83
2019-05-15T01:56:08.510Z,1019.89
2019-05-15T01:57:09.354Z,1019.85
2019-05-15T01:58:09.049Z,1019.89
2019-05-15T01:59:08.653Z,1019.92
2019-05-15T02:00:08.763Z,1019.88
2019-05-15T02:01:08.288Z,1019.91
2019-05-15T02:02:09.614Z,1019.90
2019-05-15T02:03:09.852Z,1019.89
2019-05-15T02:04:08.344Z,1019.88
2019-05-15T02:05:08.365Z,1019.87
2019-05-15T02:06:08.354Z,1019.89
2019-05-15T02:07:08.318Z,1019.90
2019-05-15T02:08:08.337Z,1019.90
2019-05-15T02:09:08.397Z,1019.92
2019-05-15T02:10:09.148Z,1019.84
2019-05-15T02:11:09.090Z,1019.89
2019-05-15T02:12:08.664Z,1019.82
2019-05-15T02:13:08.576Z,1019.82
2019-05-15T02:14:08.290Z,1019.84
2019-05-15T02:15:08.553Z,1019.86
2019-05-15T02:16:08.348Z,1019.85
2019-05-15T02:17:08.467Z,1019.80
2019-05-15T02:18:08.422Z,1019.77
2019-05-15T02:19:08.991Z,1019.76
2019-05-15T02:20:08.363Z,1019.78
2019-05-15T02:21:10.384Z,1019.81
2019-05-15T02:22:08.400Z,1019.80
2019-05-15T02:23:11.647Z,1019.81
2019-05-15T02:24:08.034Z,1019.75
2019-05-15T02:25:08.527Z,1019.77
2019-05-15T02:26:08.071Z,1019.79
2019-05-15T02:27:09.027Z,1019.81
2019-05-15T02:28:09.446Z,1019.82
2019-05-15T02:29:08.319Z,1019.82
2019-05-15T02:30:21.084Z,1019.77
2019-05-15T02:31:10.568Z,1019.76
2019-05-15T02:32:10.134Z,1019.72
2019-05-15T02:33:10.564Z,1019.71
2019-05-15T02:34:10.201Z,1019.69
2019-05-15T02:35:10.047Z,1019.71
2019-05-15T02:36:09.791Z,1019.72
2019-05-15T02:37:08.979Z,1019.73
2019-05-15T02:38:10.136Z,1019.76
2019-05-15T02:39:08.888Z,1019.75
2019-05-15T02:40:09.896Z,1019.71
2019-05-15T02:41:09.833Z,1019.69
2019-05-15T02:42:09.963Z,1019.70
2019-05-15T02:43:09.995Z,1019.68
2019-05-15T02:44:10.657Z,1019.66
2019-05-15T02:45:09.952Z,1019.69
2019-05-15T02:46:10.024Z,1019.74
2019-05-15T02:47:09.257Z,1019.74
2019-05-15T02:48:08.961Z,1019.69
2019-05-15T02:49:08.813Z,1019.71
2019-05-15T02:50:10.643Z,1019.73
2019-05-15T02:51:09.679Z,1019.70
2019-05-15T02:52:09.832Z,1019.71
2019-05-15T02:53:10.060Z,1019.72
2019-05-15T02:54:10.302Z,1019.72
2019-05-15T02:55:09.273Z,1019.72
2019-05-15T02:56:09.389Z,1019.77
2019-05-15T02:57:09.807Z,1019.78
2019-05-15T02:58:10.051Z,1019.75
2019-05-15T02:59:09.200Z,1019.75
2019-05-15T03:00:10.929Z,1019.75
2019-05-15T03:01:09.313Z,1019.80
2019-05-15T03:02:10.073Z,1019.78
2019-05-15T03:03:09.490Z,1019.72
2019-05-15T03:04:09.248Z,1019.78
2019-05-15T03:05:09.243Z,1019.81
2019-05-15T03:06:09.985Z,1019.81
2019-05-15T03:07:09.636Z,1019.79
2019-05-15T03:08:09.665Z,1019.80
2019-05-15T03:09:09.524Z,1019.78
2019-05-15T03:10:09.341Z,1019.77
2019-05-15T03:11:09.871Z,1019.78
2019-05-15T03:12:09.123Z,1019.81
2019-05-15T03:13:09.788Z,1019.85
2019-05-15T03:14:09.304Z,1019.84
2019-05-15T03:15:09.684Z,1019.82
2019-05-15T03:16:10.004Z,1019.84
2019-05-15T03:17:09.788Z,1019.83
2019-05-15T03:18:09.577Z,1019.80
2019-05-15T03:19:09.972Z,1019.86
2019-05-15T03:20:10.481Z,1019.85
2019-05-15T03:21:09.628Z,1019.83
2019-05-15T03:22:09.830Z,1019.84
2019-05-15T03:23:09.733Z,1019.81
2019-05-15T03:24:09.856Z,1019.85
2019-05-15T03:25:10.597Z,1019.86
2019-05-15T03:26:08.907Z,1019.92
2019-05-15T03:27:09.146Z,1019.85
2019-05-15T03:28:10.103Z,1019.84
2019-05-15T03:29:09.845Z,1019.85
2019-05-15T03:30:12.246Z,1019.89
2019-05-15T03:31:26.500Z,1019.84
2019-05-15T03:32:24.226Z,1019.90
2019-05-15T03:33:11.502Z,1019.86
2019-05-15T03:34:19.980Z,1019.88
2019-05-15T03:35:13.274Z,1019.81
2019-05-15T03:36:12.502Z,1019.89
2019-05-15T03:37:11.621Z,1019.89
2019-05-15T03:38:09.304Z,1019.90
2019-05-15T03:39:09.541Z,1019.93
2019-05-15T03:40:09.841Z,1019.92
2019-05-15T03:41:09.885Z,1019.95
2019-05-15T03:42:09.630Z,1019.97
2019-05-15T03:43:09.144Z,1019.95
2019-05-15T03:44:09.507Z,1019.95
2019-05-15T03:45:09.618Z,1019.97
2019-05-15T03:46:09.098Z,1019.96
2019-05-15T03:47:09.262Z,1019.98
2019-05-15T03:48:09.400Z,1020.01
2019-05-15T03:49:08.643Z,1019.95
2019-05-15T03:50:09.069Z,1019.95
2019-05-15T03:51:09.223Z,1019.97
2019-05-15T03:52:09.789Z,1019.98
2019-05-15T03:53:09.782Z,1020.00
2019-05-15T03:54:09.308Z,1019.98
2019-05-15T03:55:10.131Z,1019.94
2019-05-15T03:56:09.543Z,1019.99
2019-05-15T03:57:09.569Z,1019.99
2019-05-15T03:58:09.905Z,1020.00
2019-05-15T03:59:09.350Z,1020.00
2019-05-15T04:00:09.369Z,1019.98
2019-05-15T04:01:27.722Z,1020.00
2019-05-15T04:02:08.653Z,1019.97
2019-05-15T04:03:10.256Z,1019.93
2019-05-15T04:04:09.423Z,1019.98
2019-05-15T04:05:06.560Z,1019.99
2019-05-15T04:06:09.682Z,1020.00
2019-05-15T04:07:09.258Z,1019.96
2019-05-15T04:08:10.377Z,1019.99
2019-05-15T04:09:09.328Z,1020.00
2019-05-15T04:10:09.549Z,1020.00
2019-05-15T04:11:09.136Z,1020.02
2019-05-15T04:12:09.340Z,1019.99
2019-05-15T04:13:09.420Z,1020.01
2019-05-15T04:14:09.894Z,1019.99
2019-05-15T04:15:09.788Z,1019.97
2019-05-15T04:16:09.990Z,1019.92
2019-05-15T04:17:09.094Z,1019.93
2019-05-15T04:18:09.248Z,1019.94
2019-05-15T04:19:09.407Z,1019.92
2019-05-15T04:20:09.581Z,1019.98
2019-05-15T04:21:09.004Z,1019.94
2019-05-15T04:22:09.088Z,1019.90
2019-05-15T04:23:09.791Z,1019.98
2019-05-15T04:24:09.270Z,1019.89
2019-05-15T04:25:09.360Z,1019.94
2019-05-15T04:26:09.212Z,1019.96
2019-05-15T04:27:10.548Z,1019.92
2019-05-15T04:28:09.388Z,1019.89
2019-05-15T04:29:09.503Z,1019.88
2019-05-15T04:30:06.289Z,1019.91
2019-05-15T04:31:09.248Z,1019.91
2019-05-15T04:32:06.369Z,1019.94
2019-05-15T04:33:09.083Z,1019.92
2019-05-15T04:34:08.992Z,1019.98
2019-05-15T04:35:09.182Z,1019.92
2019-05-15T04:36:09.480Z,1019.95
2019-05-15T04:37:09.200Z,1019.95
2019-05-15T04:38:09.079Z,1019.91
2019-05-15T04:39:09.545Z,1019.98
2019-05-15T04:40:09.242Z,1019.92
2019-05-15T04:41:09.427Z,1019.95
2019-05-15T04:42:08.244Z,1019.89
2019-05-15T04:43:06.146Z,1019.85
2019-05-15T04:44:06.218Z,1019.87
2019-05-15T04:45:09.660Z,1019.85
2019-05-15T04:46:09.523Z,1019.88
2019-05-15T04:47:09.436Z,1019.88
2019-05-15T04:48:09.506Z,1019.89
2019-05-15T04:49:09.146Z,1019.91
2019-05-15T04:50:08.908Z,1019.91
2019-05-15T04:51:09.452Z,1019.87
2019-05-15T04:52:06.046Z,1019.87
2019-05-15T04:53:06.036Z,1019.82
2019-05-15T04:54:09.282Z,1019.88
2019-05-15T04:55:09.678Z,1019.85
2019-05-15T04:56:09.200Z,1019.86
2019-05-15T04:57:09.022Z,1019.83
2019-05-15T04:58:05.992Z,1019.83
2019-05-15T04:59:05.970Z,1019.81
2019-05-15T05:00:09.199Z,1019.90
2019-05-15T05:01:09.151Z,1019.83
2019-05-15T05:02:26.761Z,1019.84
2019-05-15T05:03:09.859Z,1019.85
2019-05-15T05:04:05.918Z,1019.82
2019-05-15T05:05:05.939Z,1019.87
2019-05-15T05:06:05.896Z,1019.88
2019-05-15T05:07:05.882Z,1019.92
2019-05-15T05:08:09.083Z,1019.92
2019-05-15T05:09:08.933Z,1019.87
2019-05-15T05:10:09.166Z,1019.78
2019-05-15T05:11:05.843Z,1019.87
2019-05-15T05:12:08.412Z,1019.86
2019-05-15T05:13:08.509Z,1019.86
2019-05-15T05:14:08.241Z,1019.81
2019-05-15T05:15:08.291Z,1019.80
2019-05-15T05:16:05.787Z,1019.81
2019-05-15T05:17:08.806Z,1019.85
2019-05-15T05:18:05.765Z,1019.80
2019-05-15T05:19:08.721Z,1019.80
2019-05-15T05:20:07.959Z,1019.79
2019-05-15T05:21:07.693Z,1019.81
2019-05-15T05:22:07.730Z,1019.83
2019-05-15T05:23:05.706Z,1019.82
2019-05-15T05:24:07.837Z,1019.80
2019-05-15T05:25:07.862Z,1019.88
2019-05-15T05:26:08.830Z,1019.88
2019-05-15T05:27:05.672Z,1019.84
2019-05-15T05:28:05.653Z,1019.85
2019-05-15T05:29:05.643Z,1019.87
2019-05-15T05:30:08.165Z,1019.87
2019-05-15T05:31:08.161Z,1019.84
2019-05-15T05:32:05.610Z,1019.86
2019-05-15T05:33:05.601Z,1019.81
2019-05-15T05:34:05.590Z,1019.81
2019-05-15T05:35:08.166Z,1019.82
2019-05-15T05:36:07.715Z,1019.82
2019-05-15T05:37:07.707Z,1019.83
2019-05-15T05:38:07.749Z,1019.82
2019-05-15T05:39:05.537Z,1019.79
2019-05-15T05:40:07.882Z,1019.78
2019-05-15T05:41:07.950Z,1019.74
2019-05-15T05:42:07.775Z,1019.75
2019-05-15T05:43:05.490Z,1019.71
2019-05-15T05:44:05.481Z,1019.71
2019-05-15T05:45:05.494Z,1019.70
2019-05-15T05:46:05.457Z,1019.70
2019-05-15T05:47:05.452Z,1019.72
2019-05-15T05:48:05.437Z,1019.72
2019-05-15T05:49:07.968Z,1019.74
2019-05-15T05:50:07.771Z,1019.72
2019-05-15T05:51:05.405Z,1019.77
2019-05-15T05:52:05.394Z,1019.77
2019-05-15T05:53:05.382Z,1019.79
2019-05-15T05:54:05.370Z,1019.81
2019-05-15T05:55:05.363Z,1019.80
2019-05-15T05:56:05.374Z,1019.80
2019-05-15T05:57:05.342Z,1019.83
2019-05-15T05:58:08.033Z,1019.87
2019-05-15T05:59:05.319Z,1019.85
2019-05-15T06:00:05.308Z,1019.78
2019-05-15T06:01:05.319Z,1019.78
2019-05-15T06:02:08.022Z,1019.78
2019-05-15T06:03:05.277Z,1019.81
2019-05-15T06:04:05.269Z,1019.78
2019-05-15T06:05:07.766Z,1019.75
2019-05-15T06:06:05.269Z,1019.73
2019-05-15T06:07:10.041Z,1019.73
2019-05-15T06:08:05.222Z,1019.74
2019-05-15T06:09:05.211Z,1019.73
2019-05-15T06:10:05.205Z,1019.79
2019-05-15T06:11:05.212Z,1019.82
2019-05-15T06:12:05.190Z,1019.77
2019-05-15T06:13:05.163Z,1019.79
2019-05-15T06:14:05.153Z,1019.77
2019-05-15T06:15:05.145Z,1019.78
2019-05-15T06:16:05.154Z,1019.75
2019-05-15T06:17:05.181Z,1019.79
2019-05-15T06:18:05.109Z,1019.77
2019-05-15T06:19:05.103Z,1019.77
2019-05-15T06:20:05.115Z,1019.78
2019-05-15T06:21:05.099Z,1019.78
2019-05-15T06:22:05.072Z,1019.76
2019-05-15T06:23:05.057Z,1019.81
2019-05-15T06:24:06.095Z,1019.75
2019-05-15T06:25:05.296Z,1019.78
2019-05-15T06:26:05.077Z,1019.78
2019-05-15T06:27:05.016Z,1019.75
2019-05-15T06:28:05.002Z,1019.75
2019-05-15T06:29:04.992Z,1019.76
2019-05-15T06:30:04.980Z,1019.76
2019-05-15T06:31:04.997Z,1019.77
2019-05-15T06:32:04.961Z,1019.72
2019-05-15T06:33:10.638Z,1019.69
2019-05-15T06:34:08.222Z,1019.72
2019-05-15T06:35:04.932Z,1019.69
2019-05-15T06:36:04.944Z,1019.69
2019-05-15T06:37:04.901Z,1019.70
2019-05-15T06:38:04.898Z,1019.67
2019-05-15T06:39:04.882Z,1019.72
2019-05-15T06:40:04.865Z,1019.72
2019-05-15T06:41:04.883Z,1019.73
2019-05-15T06:42:04.850Z,1019.74
2019-05-15T06:43:04.832Z,1019.68
2019-05-15T06:44:04.821Z,1019.70
2019-05-15T06:45:04.814Z,1019.69
2019-05-15T06:46:04.822Z,1019.59
2019-05-15T06:47:04.790Z,1019.56
2019-05-15T06:48:04.779Z,1019.54
2019-05-15T06:49:04.767Z,1019.56
2019-05-15T06:50:04.754Z,1019.58
2019-05-15T06:51:04.765Z,1019.61
2019-05-15T06:52:04.733Z,1019.58
2019-05-15T06:53:07.705Z,1019.54
2019-05-15T06:54:04.719Z,1019.53
2019-05-15T06:55:04.700Z,1019.55
2019-05-15T06:56:04.716Z,1019.52
2019-05-15T06:57:04.680Z,1019.54
2019-05-15T06:58:04.672Z,1019.51
2019-05-15T06:59:04.655Z,1019.50
2019-05-15T07:00:04.649Z,1019.49
2019-05-15T07:01:04.664Z,1019.55
2019-05-15T07:02:04.639Z,1019.46
2019-05-15T07:03:16.826Z,1019.50
2019-05-15T07:04:04.600Z,1019.50
2019-05-15T07:05:04.598Z,1019.54
2019-05-15T07:06:04.604Z,1019.50
2019-05-15T07:07:04.587Z,1019.46
2019-05-15T07:08:04.560Z,1019.51
2019-05-15T07:09:04.543Z,1019.45
2019-05-15T07:10:04.534Z,1019.41
2019-05-15T07:11:04.543Z,1019.47
2019-05-15T07:12:04.511Z,1019.45
2019-05-15T07:13:04.497Z,1019.47
2019-05-15T07:14:04.491Z,1019.43
2019-05-15T07:15:04.478Z,1019.40
2019-05-15T07:16:04.465Z,1019.41
2019-05-15T07:17:04.498Z,1019.43
2019-05-15T07:18:04.444Z,1019.37
2019-05-15T07:19:04.436Z,1019.34
2019-05-15T07:20:04.423Z,1019.34
2019-05-15T07:21:04.479Z,1019.33
2019-05-15T07:22:04.423Z,1019.27
2019-05-15T07:23:04.389Z,1019.30
2019-05-15T07:24:04.384Z,1019.29
2019-05-15T07:25:04.365Z,1019.34
2019-05-15T07:26:04.354Z,1019.32
2019-05-15T07:27:04.365Z,1019.33
2019-05-15T07:28:04.332Z,1019.37
2019-05-15T07:29:04.319Z,1019.34
2019-05-15T07:30:04.308Z,1019.30
2019-05-15T07:31:04.302Z,1019.28
2019-05-15T07:32:04.310Z,1019.35
2019-05-15T07:33:04.278Z,1019.32
2019-05-15T07:34:04.267Z,1019.26
2019-05-15T07:35:04.253Z,1019.27
2019-05-15T07:36:04.244Z,1019.25
2019-05-15T07:37:04.269Z,1019.27
2019-05-15T07:38:04.225Z,1019.21
2019-05-15T07:39:04.212Z,1019.19
2019-05-15T07:40:04.198Z,1019.24
2019-05-15T07:41:04.562Z,1019.22
2019-05-15T07:42:04.201Z,1019.23
2019-05-15T07:43:04.260Z,1019.22
2019-05-15T07:44:04.157Z,1019.20
2019-05-15T07:45:04.148Z,1019.15
2019-05-15T07:46:04.130Z,1019.17
2019-05-15T07:47:04.149Z,1019.15
2019-05-15T07:48:04.112Z,1019.14
2019-05-15T07:49:04.098Z,1019.11
2019-05-15T07:50:04.088Z,1019.09
2019-05-15T07:51:04.080Z,1019.12
2019-05-15T07:52:04.091Z,1019.10
2019-05-15T07:53:04.053Z,1019.12
2019-05-15T07:54:04.044Z,1019.15
2019-05-15T07:55:04.034Z,1019.11
2019-05-15T07:56:04.033Z,1019.13
2019-05-15T07:57:04.032Z,1019.10
2019-05-15T07:58:04.007Z,1019.03
2019-05-15T07:59:03.993Z,1018.95
2019-05-15T08:00:03.989Z,1019.00
2019-05-15T08:01:05.490Z,1018.95
2019-05-15T08:02:03.979Z,1018.93
2019-05-15T08:03:03.946Z,1019.00
2019-05-15T08:04:22.737Z,1018.93
2019-05-15T08:05:03.924Z,1018.93
2019-05-15T08:06:03.913Z,1018.91
2019-05-15T08:07:03.926Z,1018.92
2019-05-15T08:08:03.899Z,1018.87
2019-05-15T08:09:03.892Z,1018.88
2019-05-15T08:10:03.871Z,1018.87
2019-05-15T08:11:16.240Z,1018.85
2019-05-15T08:12:03.870Z,1018.82
2019-05-15T08:13:03.835Z,1018.81
2019-05-15T08:14:03.874Z,1018.85
2019-05-15T08:15:03.827Z,1018.81
2019-05-15T08:16:03.802Z,1018.78
2019-05-15T08:17:03.814Z,1018.79
2019-05-15T08:18:09.027Z,1018.77
2019-05-15T08:19:04.773Z,1018.83
2019-05-15T08:20:03.796Z,1018.83
2019-05-15T08:21:03.750Z,1018.79
2019-05-15T08:22:03.761Z,1018.77
2019-05-15T08:23:03.729Z,1018.75
2019-05-15T08:24:03.711Z,1018.69
2019-05-15T08:25:06.781Z,1018.71
2019-05-15T08:26:03.694Z,1018.70
2019-05-15T08:27:03.700Z,1018.70
2019-05-15T08:28:03.671Z,1018.71
2019-05-15T08:29:03.655Z,1018.63
2019-05-15T08:30:03.652Z,1018.71
2019-05-15T08:31:06.492Z,1018.64
2019-05-15T08:32:03.651Z,1018.69
2019-05-15T08:33:03.693Z,1018.65
2019-05-15T08:34:15.297Z,1018.70
2019-05-15T08:35:04.594Z,1018.70
2019-05-15T08:36:03.584Z,1018.64
2019-05-15T08:37:03.570Z,1018.64
2019-05-15T08:38:03.584Z,1018.55
2019-05-15T08:39:03.548Z,1018.61
2019-05-15T08:40:03.545Z,1018.49
2019-05-15T08:41:03.528Z,1018.55
2019-05-15T08:42:03.515Z,1018.51
2019-05-15T08:43:03.529Z,1018.52
2019-05-15T08:44:03.494Z,1018.53
2019-05-15T08:45:03.481Z,1018.49
2019-05-15T08:46:03.474Z,1018.47
2019-05-15T08:47:03.457Z,1018.46
2019-05-15T08:48:03.472Z,1018.48
2019-05-15T08:49:03.441Z,1018.43
2019-05-15T08:50:03.431Z,1018.44
2019-05-15T08:51:03.413Z,1018.47
2019-05-15T08:52:03.408Z,1018.43
2019-05-15T08:53:03.440Z,1018.40
2019-05-15T08:54:03.385Z,1018.32
2019-05-15T08:55:03.369Z,1018.24
2019-05-15T08:56:03.361Z,1018.23
2019-05-15T08:57:03.351Z,1018.24
2019-05-15T08:58:08.504Z,1018.20
2019-05-15T08:59:04.330Z,1018.14
2019-05-15T09:00:03.316Z,1018.15
2019-05-15T09:01:03.310Z,1018.24
2019-05-15T09:02:03.292Z,1018.17
2019-05-15T09:03:03.305Z,1018.20
2019-05-15T09:04:03.273Z,1018.16
2019-05-15T09:05:03.261Z,1018.15
2019-05-15T09:06:03.251Z,1018.04
2019-05-15T09:07:03.239Z,1018.06
2019-05-15T09:08:03.300Z,1018.08
2019-05-15T09:09:03.310Z,1018.05
2019-05-15T09:10:03.237Z,1018.06
2019-05-15T09:11:03.219Z,1017.94
2019-05-15T09:12:03.233Z,1017.93
2019-05-15T09:13:03.199Z,1018.05
2019-05-15T09:14:03.168Z,1017.98
2019-05-15T09:15:03.158Z,1017.97
2019-05-15T09:16:03.140Z,1017.92
2019-05-15T09:17:03.127Z,1017.94
2019-05-15T09:18:14.686Z,1017.98
2019-05-15T09:19:03.112Z,1017.97
2019-05-15T09:20:03.093Z,1017.94
2019-05-15T09:21:03.088Z,1017.92
2019-05-15T09:22:03.076Z,1017.92
2019-05-15T09:23:03.085Z,1017.92
2019-05-15T09:24:03.050Z,1017.88
2019-05-15T09:25:03.042Z,1017.89
2019-05-15T09:26:03.030Z,1017.84
2019-05-15T09:27:03.017Z,1017.86
2019-05-15T09:28:03.038Z,1017.84
2019-05-15T09:29:02.996Z,1017.87
2019-05-15T09:30:02.997Z,1017.82
2019-05-15T09:31:02.982Z,1017.82
2019-05-15T09:32:02.972Z,1017.81
2019-05-15T09:33:03.029Z,1017.83
2019-05-15T09:34:02.945Z,1017.87
2019-05-15T09:35:02.931Z,1017.78
2019-05-15T09:36:02.920Z,1017.82
2019-05-15T09:37:02.911Z,1017.73
2019-05-15T09:38:02.921Z,1017.72
2019-05-15T09:39:02.885Z,1017.71
2019-05-15T09:40:02.873Z,1017.81
2019-05-15T09:41:02.864Z,1017.70
2019-05-15T09:42:02.856Z,1017.74
2019-05-15T09:43:02.865Z,1017.71
2019-05-15T09:44:02.833Z,1017.66
2019-05-15T09:45:02.819Z,1017.62
2019-05-15T09:46:02.808Z,1017.60
2019-05-15T09:47:02.797Z,1017.66
2019-05-15T09:48:02.812Z,1017.66
2019-05-15T09:49:02.784Z,1017.67
2019-05-15T09:50:02.767Z,1017.65
2019-05-15T09:51:02.753Z,1017.64
2019-05-15T09:52:02.744Z,1017.62
2019-05-15T09:53:02.755Z,1017.67
2019-05-15T09:54:02.727Z,1017.63
2019-05-15T09:55:02.714Z,1017.56
2019-05-15T09:56:02.701Z,1017.51
2019-05-15T09:57:02.692Z,1017.57
2019-05-15T09:58:02.699Z,1017.50
2019-05-15T09:59:02.663Z,1017.56
2019-05-15T10:00:02.654Z,1017.57
2019-05-15T10:01:02.652Z,1017.54
2019-05-15T10:02:02.635Z,1017.53
2019-05-15T10:03:02.643Z,1017.55
2019-05-15T10:04:02.614Z,1017.57
2019-05-15T10:05:06.456Z,1017.57
2019-05-15T10:06:03.590Z,1017.56
2019-05-15T10:07:02.577Z,1017.56
2019-05-15T10:08:02.600Z,1017.54
2019-05-15T10:09:02.557Z,1017.51
2019-05-15T10:10:02.548Z,1017.40
2019-05-15T10:11:02.534Z,1017.42
2019-05-15T10:12:02.542Z,1017.39
2019-05-15T10:13:02.512Z,1017.39
2019-05-15T10:14:02.523Z,1017.38
2019-05-15T10:15:02.491Z,1017.40
2019-05-15T10:16:02.478Z,1017.38
2019-05-15T10:17:02.520Z,1017.38
2019-05-15T10:18:02.459Z,1017.39
2019-05-15T10:19:02.479Z,1017.36
2019-05-15T10:20:02.434Z,1017.29
2019-05-15T10:21:02.554Z,1017.28
2019-05-15T10:22:02.412Z,1017.24
2019-05-15T10:23:02.400Z,1017.22
2019-05-15T10:24:02.415Z,1017.25
2019-05-15T10:25:02.383Z,1017.26
2019-05-15T10:26:02.390Z,1017.20
2019-05-15T10:27:02.359Z,1017.18
2019-05-15T10:28:02.427Z,1017.17
2019-05-15T10:29:02.357Z,1017.11
2019-05-15T10:30:02.325Z,1017.16
2019-05-15T10:31:02.312Z,1017.16
2019-05-15T10:32:02.302Z,1017.17
2019-05-15T10:33:02.297Z,1017.17
2019-05-15T10:34:02.300Z,1017.15
2019-05-15T10:35:02.277Z,1017.15
2019-05-15T10:36:02.258Z,1017.15
2019-05-15T10:37:02.244Z,1017.18
2019-05-15T10:38:02.239Z,1017.12
2019-05-15T10:39:02.302Z,1017.10
2019-05-15T10:40:02.211Z,1017.09
2019-05-15T10:41:08.802Z,1017.09
2019-05-15T10:42:02.193Z,1017.05
2019-05-15T10:43:02.222Z,1017.01
2019-05-15T10:44:02.201Z,1017.03
2019-05-15T10:45:02.155Z,1017.03
2019-05-15T10:46:02.159Z,1017.03
2019-05-15T10:47:02.141Z,1016.97
2019-05-15T10:48:02.127Z,1016.99
2019-05-15T10:49:02.140Z,1017.00
2019-05-15T10:50:02.103Z,1016.93
2019-05-15T10:51:07.312Z,1016.88
2019-05-15T10:52:03.173Z,1016.90
2019-05-15T10:53:02.100Z,1016.88
2019-05-15T10:54:02.088Z,1016.88
2019-05-15T10:55:02.054Z,1016.89
2019-05-15T10:56:02.678Z,1016.89
2019-05-15T10:57:05.150Z,1016.81
2019-05-15T10:58:02.031Z,1016.88
2019-05-15T10:59:02.030Z,1016.80
2019-05-15T11:00:01.994Z,1016.81
2019-05-15T11:01:03.323Z,1016.89
2019-05-15T11:02:01.975Z,1016.87
2019-05-15T11:03:01.967Z,1016.85
2019-05-15T11:04:01.977Z,1016.87
2019-05-15T11:05:01.941Z,1016.91
2019-05-15T11:06:01.934Z,1016.83
2019-05-15T11:07:01.922Z,1016.73
2019-05-15T11:08:01.911Z,1016.72
2019-05-15T11:09:01.923Z,1016.71
2019-05-15T11:10:01.890Z,1016.72
2019-05-15T11:11:01.879Z,1016.68
2019-05-15T11:12:01.864Z,1016.66
2019-05-15T11:13:01.870Z,1016.65
2019-05-15T11:14:01.904Z,1016.66
2019-05-15T11:15:01.835Z,1016.62
2019-05-15T11:16:01.827Z,1016.57
2019-05-15T11:17:01.810Z,1016.57
2019-05-15T11:18:01.847Z,1016.58
2019-05-15T11:19:01.815Z,1016.53
2019-05-15T11:20:01.781Z,1016.52
2019-05-15T11:21:01.778Z,1016.55
2019-05-15T11:22:01.758Z,1016.54
2019-05-15T11:23:01.758Z,1016.53
2019-05-15T11:24:01.765Z,1016.52
2019-05-15T11:25:01.728Z,1016.48
2019-05-15T11:26:01.715Z,1016.43
2019-05-15T11:27:01.711Z,1016.44
2019-05-15T11:28:01.699Z,1016.36
2019-05-15T11:29:01.712Z,1016.36
2019-05-15T11:30:01.679Z,1016.38
2019-05-15T11:31:01.666Z,1016.36
2019-05-15T11:32:01.653Z,1016.37
2019-05-15T11:33:01.669Z,1016.29
2019-05-15T11:34:01.662Z,1016.30
2019-05-15T11:35:04.363Z,1016.32
2019-05-15T11:36:05.743Z,1016.32
2019-05-15T11:37:01.652Z,1016.32
2019-05-15T11:38:01.596Z,1016.29
2019-05-15T11:39:01.602Z,1016.31
2019-05-15T11:40:01.575Z,1016.31
2019-05-15T11:41:04.558Z,1016.24
2019-05-15T11:42:01.550Z,1016.20
2019-05-15T11:43:01.556Z,1016.25
2019-05-15T11:44:01.549Z,1016.22
2019-05-15T11:45:01.516Z,1016.17
2019-05-15T11:46:01.506Z,1016.15
2019-05-15T11:47:01.497Z,1016.13
2019-05-15T11:48:01.483Z,1016.18
2019-05-15T11:49:01.493Z,1016.15
2019-05-15T11:50:01.458Z,1016.15
2019-05-15T11:51:01.447Z,1016.08
2019-05-15T11:52:01.436Z,1016.09
2019-05-15T11:53:01.426Z,1016.07
2019-05-15T11:54:01.442Z,1016.09
2019-05-15T11:55:01.404Z,1016.11
2019-05-15T11:56:01.396Z,1016.12
2019-05-15T11:57:01.381Z,1016.09
2019-05-15T11:58:01.369Z,1016.05
2019-05-15T11:59:01.386Z,1016.01
2019-05-15T12:00:01.604Z,1016.00
2019-05-15T12:01:01.338Z,1016.00
2019-05-15T12:02:01.327Z,1015.99
2019-05-15T12:03:01.317Z,1016.03
2019-05-15T12:04:01.347Z,1016.00
2019-05-15T12:05:01.290Z,1016.03